Time;durP1;ratioP1;P1;durP2;ratioP2;P2;SDS_P1;SDS_P2;PMS_P1;PMS_P2;Temp;Humidity;BMP_temperature;BMP_pressure;BME280_temperature;BME280_humidity;BME280_pressure;Samples;Min_cycle;Max_cycle;Signal;HPM_P1;HPM_P2
2023/01/18 00:01:17;;;;;;;19.40;6.45;;;;;;;-0.59;100.00;99041.34;5042810;28;21038;-40
2023/01/18 00:03:43;;;;;;;21.08;6.22;;;;;;;-0.57;100.00;99047.31;5038523;28;20369;-40
2023/01/18 00:06:09;;;;;;;19.70;6.55;;;;;;;-0.54;100.00;99047.00;5042037;28;20036;-40
2023/01/18 00:08:36;;;;;;;20.10;6.25;;;;;;;-0.55;100.00;99040.88;5050300;28;20040;-40
2023/01/18 00:11:02;;;;;;;16.38;5.90;;;;;;;-0.56;100.00;99043.69;5039376;28;20030;-40
2023/01/18 00:13:28;;;;;;;21.98;6.70;;;;;;;-0.53;100.00;99048.66;5041510;28;20037;-40
2023/01/18 00:15:53;;;;;;;18.58;6.22;;;;;;;-0.50;100.00;99043.91;5044930;28;20136;-40
2023/01/18 00:18:18;;;;;;;24.38;5.60;;;;;;;-0.48;100.00;99046.38;5034761;28;20028;-40
2023/01/18 00:20:44;;;;;;;25.85;5.75;;;;;;;-0.44;100.00;99042.44;5034694;28;20484;-40
2023/01/18 00:23:09;;;;;;;22.92;5.65;;;;;;;-0.39;100.00;99044.63;5047323;28;20025;-41
2023/01/18 00:25:34;;;;;;;17.63;5.45;;;;;;;-0.39;100.00;99044.63;5040919;28;20075;-40
2023/01/18 00:28:00;;;;;;;19.60;5.93;;;;;;;-0.36;100.00;99044.31;5049965;28;20033;-40
2023/01/18 00:30:26;;;;;;;12.57;4.95;;;;;;;-0.29;100.00;99046.19;5047448;28;20025;-40
2023/01/18 00:32:54;;;;;;;17.52;5.22;;;;;;;-0.26;100.00;99035.28;5041249;28;20440;-40
2023/01/18 00:35:21;;;;;;;12.25;4.90;;;;;;;-0.18;100.00;99042.44;5042289;28;20523;-40
2023/01/18 00:37:50;;;;;;;21.15;6.47;;;;;;;-0.09;100.00;99040.66;5037120;28;20088;-41
2023/01/18 00:40:16;;;;;;;19.55;4.82;;;;;;;-0.02;100.00;99029.28;5043408;28;20037;-40
2023/01/18 00:45:25;;;;;;;29.17;5.53;;;;;;;0.19;100.00;99018.28;5041929;28;20036;-40
2023/01/18 00:47:51;;;;;;;17.17;5.40;;;;;;;0.34;100.00;99015.00;5040232;28;20032;-39
2023/01/18 00:50:18;;;;;;;19.25;5.63;;;;;;;0.41;100.00;99019.50;5041403;28;20120;-39
2023/01/18 00:52:45;;;;;;;17.52;5.15;;;;;;;0.45;100.00;99012.09;5040503;28;20018;-39
2023/01/18 00:55:11;;;;;;;11.35;4.47;;;;;;;0.48;100.00;99011.75;5035872;28;20227;-38
2023/01/18 00:57:37;;;;;;;11.57;4.45;;;;;;;0.53;100.00;99017.41;5045994;28;20033;-41
2023/01/18 01:00:03;;;;;;;24.40;5.80;;;;;;;0.57;100.00;99008.13;5049469;28;20032;-41
2023/01/18 01:02:28;;;;;;;12.05;4.03;;;;;;;0.61;100.00;99017.41;5039465;28;20026;-39
2023/01/18 01:07:38;;;;;;;17.30;5.05;;;;;;;0.72;100.00;99015.44;5042178;28;20072;-40
2023/01/18 01:10:08;;;;;;;12.98;4.32;;;;;;;0.73;100.00;99014.44;5033588;28;20053;-40
2023/01/18 01:26:14;;;;;;;17.65;4.22;;;;;;;1.09;100.00;99005.19;5049043;28;20044;-40
2023/01/18 01:28:44;;;;;;;14.52;3.92;;;;;;;1.17;100.00;99007.00;5048361;28;20377;-40
2023/01/18 01:31:14;;;;;;;14.27;4.60;;;;;;;1.21;100.00;99004.84;5033037;28;20032;-40
2023/01/18 01:33:39;;;;;;;19.77;4.60;;;;;;;1.25;100.00;99019.41;5038050;28;20464;-39
2023/01/18 01:36:08;;;;;;;27.83;5.38;;;;;;;1.27;100.00;99014.78;5047672;28;20053;-40
2023/01/18 01:38:34;;;;;;;23.23;4.60;;;;;;;1.27;100.00;99012.97;5039222;28;20028;-40
2023/01/18 01:41:01;;;;;;;20.73;4.53;;;;;;;1.21;100.00;99008.34;5043565;28;20468;-40
2023/01/18 01:43:43;;;;;;;10.52;3.63;;;;;;;1.21;100.00;99020.72;5034246;28;20112;-40
2023/01/18 01:46:26;;;;;;;11.65;3.75;;;;;;;1.18;100.00;99024.53;5045900;28;20040;-41
2023/01/18 01:48:58;;;;;;;16.83;4.38;;;;;;;1.14;100.00;99027.72;5037804;28;20068;-41
2023/01/18 01:51:24;;;;;;;15.05;4.38;;;;;;;1.11;100.00;99026.22;5035666;28;20443;-39
2023/01/18 01:53:50;;;;;;;21.58;4.45;;;;;;;1.06;100.00;99025.88;5041849;28;20112;-40
2023/01/18 01:56:17;;;;;;;14.05;4.45;;;;;;;1.08;100.00;99027.38;5023016;28;20480;-40
2023/01/18 01:58:42;;;;;;;12.70;4.40;;;;;;;1.08;100.00;99027.38;5043891;28;20057;-41
2023/01/18 02:01:08;;;;;;;29.58;4.80;;;;;;;1.04;100.00;99020.75;5040395;28;20091;-40
2023/01/18 02:03:35;;;;;;;22.75;4.63;;;;;;;1.05;100.00;99024.22;5042613;28;20043;-41
2023/01/18 02:06:08;;;;;;;14.23;4.15;;;;;;;1.03;100.00;99028.88;5033143;28;20025;-41
2023/01/18 02:08:34;;;;;;;15.45;4.95;;;;;;;0.97;100.00;99027.69;5034088;28;20021;-39
2023/01/18 02:10:59;;;;;;;16.33;4.53;;;;;;;0.96;100.00;99026.03;5051066;28;20387;-39
2023/01/18 02:13:25;;;;;;;18.52;4.97;;;;;;;0.96;100.00;99035.81;5050353;28;20467;-39
2023/01/18 02:16:09;;;;;;;15.57;5.07;;;;;;;0.95;100.00;99031.50;5043089;28;20026;-40
2023/01/18 02:19:04;;;;;;;26.02;5.53;;;;;;;0.96;100.00;99031.34;5043528;28;20029;-39
2023/01/18 02:21:36;;;;;;;12.95;4.28;;;;;;;0.93;100.00;99034.31;5027822;28;20125;-39
2023/01/18 02:24:16;;;;;;;16.70;4.55;;;;;;;0.92;100.00;99039.78;5030829;28;20025;-40
2023/01/18 02:26:48;;;;;;;25.75;5.40;;;;;;;0.89;100.00;99046.22;5039912;28;20182;-39
2023/01/18 02:29:18;;;;;;;22.80;5.18;;;;;;;0.85;100.00;99043.09;5035354;28;20037;-40
2023/01/18 02:31:59;;;;;;;19.15;4.85;;;;;;;0.90;100.00;99042.59;5036784;28;20057;-39
2023/01/18 02:34:42;;;;;;;21.38;5.15;;;;;;;0.93;100.00;99050.22;5044891;28;20025;-41
2023/01/18 02:37:26;;;;;;;13.52;4.55;;;;;;;0.97;100.00;99058.66;5041928;28;20528;-39
2023/01/18 02:40:19;;;;;;;12.63;4.03;;;;;;;1.02;100.00;99057.16;5034438;28;20030;-39
2023/01/18 02:48:19;;;;;;;8.23;3.38;;;;;;;1.19;100.00;99042.13;5037871;28;20404;-38
2023/01/18 02:50:44;;;;;;;;;;;;;;;1.25;100.00;99053.88;5038434;28;20086;-39
2023/01/18 02:53:16;;;;;;;14.27;3.88;;;;;;;1.26;100.00;99052.88;5044509;28;19917;-39
2023/01/18 02:55:56;;;;;;;15.82;3.50;;;;;;;1.26;100.00;99048.41;5046639;28;20025;-39
2023/01/18 02:58:47;;;;;;;13.65;3.88;;;;;;;1.37;100.00;99054.34;5036593;28;20029;-40
2023/01/18 03:01:16;;;;;;;16.15;4.72;;;;;;;1.41;100.00;99056.50;5032315;28;20045;-40
2023/01/18 03:03:43;;;;;;;16.67;3.88;;;;;;;1.45;100.00;99051.69;5029960;28;20030;-40
2023/01/18 03:06:08;;;;;;;16.85;4.35;;;;;;;1.45;100.00;99047.25;5041763;28;20017;-40
2023/01/18 03:08:42;;;;;;;14.18;4.57;;;;;;;1.49;100.00;99053.03;5034633;28;20532;-40
2023/01/18 03:11:36;;;;;;;14.32;3.67;;;;;;;1.48;100.00;99054.03;5028138;28;20083;-40
2023/01/18 03:14:17;;;;;;;15.93;4.07;;;;;;;1.42;100.00;99050.22;5043319;28;20037;-40
2023/01/18 03:17:02;;;;;;;23.95;4.00;;;;;;;1.40;100.00;99065.47;5048012;28;20060;-40
2023/01/18 03:23:36;;;;;;;8.93;3.83;;;;;;;1.38;100.00;99062.16;5043643;28;20110;-39
2023/01/18 03:25:06;;;;;;;11.45;3.40;;;;;;;1.40;100.00;99062.81;5029865;28;20038;-40
2023/01/18 03:35:43;;;;;;;9.40;2.67;;;;;;;1.54;100.00;99071.91;5030552;28;20392;-40
2023/01/18 03:38:09;;;;;;;12.65;3.20;;;;;;;1.54;100.00;99062.13;5048248;28;20029;-39
2023/01/18 03:40:34;;;;;;;13.95;3.47;;;;;;;1.52;100.00;99064.09;5048391;28;20498;-40
2023/01/18 03:43:02;;;;;;;11.88;3.47;;;;;;;1.48;100.00;99061.97;5046734;28;20483;-40
2023/01/18 03:45:36;;;;;;;;;;;;;;;1.42;100.00;99062.63;5046113;28;20021;-39
2023/01/18 03:48:03;;;;;;;12.48;2.97;;;;;;;1.40;100.00;99065.47;5031990;28;19936;-40
2023/01/18 03:50:38;;;;;;;13.25;3.20;;;;;;;1.33;100.00;99064.47;5036569;28;20029;-39
2023/01/18 03:53:06;;;;;;;8.63;2.67;;;;;;;1.32;100.00;99068.13;5029343;28;20496;-40
2023/01/18 03:55:52;;;;;;;14.18;3.42;;;;;;;1.31;100.00;99072.56;5037985;28;20047;-40
2023/01/18 03:58:22;;;;;;;10.68;3.63;;;;;;;1.29;100.00;99060.47;5034435;28;20088;-39
2023/01/18 04:00:50;;;;;;;8.13;2.72;;;;;;;1.21;100.00;99082.53;5042932;28;20021;-40
2023/01/18 04:03:16;;;;;;;13.88;3.65;;;;;;;1.27;100.00;99086.34;5029342;28;20076;-40
2023/01/18 04:05:41;;;;;;;8.38;3.30;;;;;;;1.24;100.00;99086.69;5045864;28;20025;-40
2023/01/18 04:08:06;;;;;;;7.53;3.40;;;;;;;1.28;100.00;99093.28;5040931;28;20121;-39
2023/01/18 04:10:32;;;;;;;13.73;3.40;;;;;;;1.28;100.00;99088.81;5041705;28;20048;-40
2023/01/18 04:12:57;;;;;;;10.27;3.80;;;;;;;1.27;100.00;99087.16;5049077;28;20057;-40
2023/01/18 04:15:22;;;;;;;12.88;3.70;;;;;;;1.24;100.00;99094.63;5045585;28;20025;-40
2023/01/18 04:17:51;;;;;;;13.98;4.10;;;;;;;1.24;100.00;99097.28;5040946;28;20090;-38
2023/01/18 04:20:17;;;;;;;11.82;4.05;;;;;;;1.22;100.00;99091.31;5037108;28;20025;-40
2023/01/18 04:22:42;;;;;;;15.05;3.45;;;;;;;1.21;100.00;99097.59;5031539;28;20511;-40
2023/01/18 04:25:08;;;;;;;8.93;3.15;;;;;;;1.24;100.00;99098.09;5041333;28;20037;-39
2023/01/18 04:27:33;;;;;;;7.22;3.10;;;;;;;1.26;100.00;99103.22;5033132;28;20075;-39
2023/01/18 04:29:59;;;;;;;14.20;3.58;;;;;;;1.27;100.00;99103.06;5047586;28;20029;-39
2023/01/18 04:32:24;;;;;;;11.02;2.97;;;;;;;1.25;100.00;99099.75;5039731;28;20029;-39
2023/01/18 04:34:49;;;;;;;16.00;3.28;;;;;;;1.20;100.00;99096.75;5046393;28;20042;-40
2023/01/18 04:37:15;;;;;;;20.63;3.63;;;;;;;1.15;100.00;99098.25;5029684;28;20053;-40
2023/01/18 04:39:40;;;;;;;14.32;3.55;;;;;;;1.12;100.00;99107.34;5041251;28;20029;-40
2023/01/18 04:42:06;;;;;;;7.40;2.85;;;;;;;1.15;100.00;99106.19;5030481;28;20418;-41
2023/01/18 04:44:31;;;;;;;11.65;3.67;;;;;;;1.18;100.00;99103.22;5041938;28;20036;-41
2023/01/18 04:46:56;;;;;;;11.02;3.50;;;;;;;1.15;100.00;99106.19;5049608;28;20158;-40
2023/01/18 04:49:22;;;;;;;12.50;3.25;;;;;;;1.12;100.00;99102.06;5040458;28;20029;-41
2023/01/18 04:51:48;;;;;;;9.65;3.55;;;;;;;1.04;100.00;99108.16;5039818;28;20080;-41
2023/01/18 04:54:15;;;;;;;11.73;3.55;;;;;;;1.04;100.00;99112.66;5040104;28;20164;-41
2023/01/18 04:56:41;;;;;;;15.30;3.67;;;;;;;1.06;100.00;99111.50;5046271;28;20388;-41
2023/01/18 04:59:06;;;;;;;14.57;3.45;;;;;;;1.04;100.00;99104.69;5044168;28;20028;-40
2023/01/18 05:01:32;;;;;;;12.00;3.20;;;;;;;1.00;100.00;99103.34;5042929;28;20013;-37
2023/01/18 05:03:57;;;;;;;11.10;3.28;;;;;;;0.94;100.00;99104.00;5035010;28;20029;-40
2023/01/18 05:06:23;;;;;;;16.05;4.20;;;;;;;0.92;100.00;99117.41;5034928;28;20033;-40
2023/01/18 05:08:49;;;;;;;16.60;3.90;;;;;;;0.97;100.00;99120.41;5034839;28;20064;-39
2023/01/18 05:11:17;;;;;;;14.15;3.65;;;;;;;0.97;100.00;99117.75;5043438;28;20061;-40
2023/01/18 05:13:43;;;;;;;8.40;3.45;;;;;;;1.00;100.00;99128.03;5031646;28;20033;-39
2023/01/18 05:16:15;;;;;;;15.30;4.15;;;;;;;0.97;100.00;99120.41;5048800;28;20031;-39
2023/01/18 05:18:40;;;;;;;14.25;4.25;;;;;;;0.99;100.00;99121.06;5051001;28;20036;-40
2023/01/18 05:21:05;;;;;;;23.02;3.78;;;;;;;1.03;100.00;99133.00;5041316;28;20408;-40
2023/01/18 05:23:31;;;;;;;15.13;3.20;;;;;;;1.12;100.00;99133.84;5035365;28;20025;-41
2023/01/18 05:25:57;;;;;;;15.82;4.00;;;;;;;1.13;100.00;99126.72;5047708;28;20029;-39
2023/01/18 05:28:24;;;;;;;12.00;3.33;;;;;;;1.13;100.00;99138.16;5049462;28;20048;-40
2023/01/18 05:30:50;;;;;;;11.73;2.90;;;;;;;1.14;100.00;99133.69;5038750;28;20028;-41
2023/01/18 05:33:19;;;;;;;9.57;3.17;;;;;;;1.20;100.00;99135.69;5042484;28;20388;-41
2023/01/18 05:35:52;;;;;;;38.08;3.20;;;;;;;1.20;100.00;99138.34;5045810;28;20439;-40
2023/01/18 05:38:19;;;;;;;14.57;2.83;;;;;;;1.24;100.00;99137.03;5034099;28;20108;-40
2023/01/18 05:40:46;;;;;;;15.70;2.25;;;;;;;1.31;100.00;99140.66;5048557;28;20405;-39
2023/01/18 05:43:12;;;;;;;5.53;2.17;;;;;;;1.35;100.00;99139.34;5050801;28;20097;-40
2023/01/18 05:45:37;;;;;;;7.25;1.98;;;;;;;1.42;100.00;99143.00;5042580;28;20100;-38
2023/01/18 05:48:03;;;;;;;12.82;2.38;;;;;;;1.59;100.00;99145.66;5034506;28;20087;-40
2023/01/18 05:50:28;;;;;;;9.88;2.33;;;;;;;1.64;100.00;99152.13;5043173;28;20521;-39
2023/01/18 05:52:56;;;;;;;13.40;1.90;;;;;;;1.71;100.00;99141.66;5033966;28;20036;-40
2023/01/18 05:55:21;;;;;;;10.45;1.75;;;;;;;1.76;100.00;99141.97;5031929;28;20036;-40
2023/01/18 05:57:47;;;;;;;9.00;1.65;;;;;;;1.81;100.00;99152.91;5031463;28;20029;-40
2023/01/18 06:00:13;;;;;;;3.58;1.40;;;;;;;1.82;100.00;99144.00;5034079;28;20048;-40
2023/01/18 06:02:38;;;;;;;6.57;2.10;;;;;;;1.82;100.00;99138.69;5037760;28;20021;-40
2023/01/18 06:05:04;;;;;;;7.78;1.65;;;;;;;1.82;100.00;99144.00;5031165;28;20029;-40
2023/01/18 06:07:29;;;;;;;14.85;1.60;;;;;;;1.81;100.00;99152.09;5034894;28;20120;-40
2023/01/18 06:09:54;;;;;;;13.23;1.83;;;;;;;1.78;100.00;99147.97;5042195;28;20032;-37
2023/01/18 06:12:20;;;;;;;7.38;1.85;;;;;;;1.77;100.00;99156.91;5050467;28;20039;-39
2023/01/18 06:14:45;;;;;;;13.82;2.00;;;;;;;1.80;100.00;99156.59;5035144;28;20025;-39
2023/01/18 06:17:11;;;;;;;7.03;1.70;;;;;;;1.86;100.00;99155.91;5034311;28;20704;-38
2023/01/18 06:19:36;;;;;;;9.38;2.55;;;;;;;1.91;100.00;99158.06;5046758;28;20029;-41
2023/01/18 06:22:02;;;;;;;20.65;2.97;;;;;;;1.96;100.00;99159.22;5032380;28;20060;-40
2023/01/18 06:24:27;;;;;;;9.18;2.25;;;;;;;2.02;100.00;99155.06;5045453;28;20033;-40
2023/01/18 06:26:52;;;;;;;15.73;2.10;;;;;;;2.03;100.00;99162.03;5046364;28;20139;-39
2023/01/18 06:29:18;;;;;;;7.90;2.20;;;;;;;2.01;100.00;99168.50;5031131;28;20063;-38
2023/01/18 06:31:43;;;;;;;8.30;2.13;;;;;;;1.98;100.00;99167.00;5042924;28;20036;-40
2023/01/18 06:34:08;;;;;;;7.97;2.20;;;;;;;1.97;100.00;99174.16;5046193;28;20373;-40
2023/01/18 06:36:36;;;;;;;8.00;2.25;;;;;;;1.98;100.00;99165.19;5044810;28;20171;-41
2023/01/18 06:39:01;;;;;;;15.98;2.92;;;;;;;2.02;100.00;99178.94;5030154;28;20033;-41
2023/01/18 06:41:28;;;;;;;12.82;3.13;;;;;;;2.07;100.00;99173.13;5032679;28;20135;-40
2023/01/18 06:43:53;;;;;;;12.27;2.30;;;;;;;2.09;100.00;99179.94;5033782;28;20191;-39
2023/01/18 06:46:19;;;;;;;11.85;2.58;;;;;;;2.13;100.00;99183.06;5044139;28;20155;-41
2023/01/18 06:48:44;;;;;;;7.60;2.30;;;;;;;2.09;100.00;99187.06;5036419;28;20040;-40
2023/01/18 06:51:11;;;;;;;21.02;3.03;;;;;;;2.03;100.00;99185.91;5036550;28;20021;-41
2023/01/18 06:53:37;;;;;;;7.38;2.63;;;;;;;1.99;100.00;99192.53;5050195;28;20107;-40
2023/01/18 06:56:02;;;;;;;10.00;2.65;;;;;;;2.00;100.00;99191.53;5044660;28;20055;-40
2023/01/18 06:58:31;;;;;;;7.53;3.40;;;;;;;1.97;100.00;99190.06;5040012;28;20057;-39
2023/01/18 07:00:58;;;;;;;6.75;2.67;;;;;;;2.05;100.00;99193.69;5032919;28;20036;-40
2023/01/18 07:03:24;;;;;;;18.38;3.33;;;;;;;2.03;100.00;99199.19;5042432;28;20033;-40
2023/01/18 07:05:52;;;;;;;10.60;2.80;;;;;;;2.07;100.00;99205.78;5048882;28;20400;-40
2023/01/18 07:08:19;;;;;;;9.93;2.70;;;;;;;2.08;100.00;99206.63;5031368;28;20564;-39
2023/01/18 07:10:45;;;;;;;11.98;2.83;;;;;;;2.14;100.00;99208.63;5049198;28;20052;-39
2023/01/18 07:13:10;;;;;;;13.18;3.10;;;;;;;2.19;100.00;99216.91;5047775;28;20029;-40
2023/01/18 07:15:36;;;;;;;5.82;2.50;;;;;;;2.20;100.00;99213.25;5033347;28;20029;-40
2023/01/18 07:18:01;;;;;;;9.85;2.83;;;;;;;2.19;100.00;99209.78;5029925;28;20036;-40
2023/01/18 07:20:28;;;;;;;15.77;3.38;;;;;;;2.17;100.00;99216.25;5032157;28;20021;-40
2023/01/18 07:22:53;;;;;;;16.02;3.00;;;;;;;2.16;100.00;99222.56;5042379;28;20130;-41
2023/01/18 07:25:19;;;;;;;12.77;3.10;;;;;;;2.17;100.00;99221.56;5029983;28;20076;-40
2023/01/18 07:27:47;;;;;;;16.05;3.20;;;;;;;2.20;100.00;99221.22;5029949;28;20108;-40
2023/01/18 07:30:13;;;;;;;9.15;2.60;;;;;;;2.16;100.00;99231.34;5036978;28;20025;-42
2023/01/18 07:32:38;;;;;;;14.95;2.72;;;;;;;2.18;100.00;99239.94;5029734;28;20495;-40
2023/01/18 07:35:04;;;;;;;7.10;2.17;;;;;;;2.22;100.00;99242.28;5029407;28;20400;-40
2023/01/18 07:37:29;;;;;;;8.50;2.28;;;;;;;2.26;100.00;99239.13;5048711;28;20036;-40
2023/01/18 07:39:55;;;;;;;11.32;2.65;;;;;;;2.24;100.00;99232.31;5044443;28;20143;-40
2023/01/18 07:42:20;;;;;;;13.43;2.50;;;;;;;2.24;100.00;99233.16;5031684;28;20048;-38
2023/01/18 07:44:46;;;;;;;10.55;2.47;;;;;;;2.28;100.00;99249.56;5029270;28;20512;-39
2023/01/18 07:47:11;;;;;;;10.85;2.13;;;;;;;2.29;100.00;99252.06;5030889;28;20415;-41
2023/01/18 07:49:36;;;;;;;14.27;2.72;;;;;;;2.30;100.00;99253.72;5029069;28;20052;-41
2023/01/18 07:52:02;;;;;;;14.90;2.63;;;;;;;2.29;100.00;99251.22;5045161;28;20036;-41
2023/01/18 07:54:27;;;;;;;10.32;2.25;;;;;;;2.31;100.00;99260.69;5040368;28;20033;-42
2023/01/18 07:56:53;;;;;;;14.00;3.20;;;;;;;2.34;100.00;99255.06;5040845;28;20026;-42
2023/01/18 07:59:18;;;;;;;8.77;3.25;;;;;;;2.32;100.00;99262.34;5039486;28;20053;-40
2023/01/18 08:01:43;;;;;;;19.42;3.13;;;;;;;2.32;100.00;99266.84;5047080;28;20448;-40
2023/01/18 08:04:09;;;;;;;12.43;2.40;;;;;;;2.38;100.00;99264.31;5049823;28;20480;-40
2023/01/18 08:06:34;;;;;;;9.02;2.80;;;;;;;2.39;100.00;99267.81;5042062;28;20514;-40
2023/01/18 08:08:59;;;;;;;15.32;2.78;;;;;;;2.41;100.00;99271.13;5039221;28;20299;-40
2023/01/18 08:11:25;;;;;;;18.52;3.60;;;;;;;2.41;100.00;99274.59;5034988;28;20439;-39
2023/01/18 08:13:51;;;;;;;13.57;2.63;;;;;;;2.44;100.00;99275.28;5032951;28;20455;-39
2023/01/18 08:16:17;;;;;;;10.80;2.67;;;;;;;2.44;100.00;99278.75;5048599;28;20078;-40
2023/01/18 08:18:44;;;;;;;11.93;2.45;;;;;;;2.44;100.00;99278.75;5052523;28;20057;-38
2023/01/18 08:21:11;;;;;;;13.30;2.90;;;;;;;2.45;100.00;99287.53;5049850;28;20039;-40
2023/01/18 08:23:38;;;;;;;11.95;2.90;;;;;;;2.57;100.00;99286.22;5051447;28;20022;-40
2023/01/18 08:26:03;;;;;;;15.15;3.00;;;;;;;2.80;100.00;99289.00;5039958;28;20120;-38
2023/01/18 08:28:29;;;;;;;31.02;3.00;;;;;;;3.30;100.00;99291.31;5034451;28;20497;-39
2023/01/18 08:31:05;;;;;;;17.20;4.13;;;;;;;3.66;100.00;99298.78;5033261;28;20426;-40
2023/01/18 08:33:30;;;;;;;14.07;3.80;;;;;;;3.97;100.00;99306.69;5036020;28;20481;-39
2023/01/18 08:35:56;;;;;;;14.18;4.07;;;;;;;4.70;100.00;99300.94;5040390;28;20060;-41
2023/01/18 08:38:22;;;;;;;17.50;4.28;;;;;;;4.94;100.00;99310.53;5051014;28;20036;-41
2023/01/18 08:40:47;;;;;;;9.30;3.40;;;;;;;5.23;100.00;99309.69;5047312;28;20484;-41
2023/01/18 08:43:13;;;;;;;17.95;3.65;;;;;;;5.34;100.00;99319.06;5053142;28;20025;-40
2023/01/18 08:45:38;;;;;;;16.55;3.95;;;;;;;5.42;100.00;99317.13;5053154;28;20384;-40
2023/01/18 08:48:09;;;;;;;13.95;3.60;;;;;;;5.61;100.00;99320.22;5045899;28;20380;-40
2023/01/18 08:50:34;;;;;;;14.18;3.60;;;;;;;5.34;100.00;99319.06;5034244;28;20033;-40
2023/01/18 08:53:01;;;;;;;13.40;4.28;;;;;;;4.66;100.00;99323.63;5052958;28;20497;-39
2023/01/18 08:55:28;;;;;;;11.23;4.32;;;;;;;4.18;100.00;99327.34;5049437;28;20543;-40
2023/01/18 08:57:54;;;;;;;21.30;4.70;;;;;;;4.21;100.00;99341.31;5046426;28;20030;-40
2023/01/18 09:00:22;;;;;;;18.75;5.25;;;;;;;4.59;100.00;99337.69;5040356;28;20120;-40
2023/01/18 09:02:48;;;;;;;16.45;5.07;;;;;;;4.50;100.00;99341.44;5042064;28;20030;-40
2023/01/18 09:05:13;;;;;;;16.30;4.95;;;;;;;4.33;100.00;99346.06;5041246;28;20025;-40
2023/01/18 09:07:39;;;;;;;15.10;5.03;;;;;;;4.01;100.00;99343.63;5049584;28;20071;-40
2023/01/18 09:10:04;;;;;;;26.83;5.18;;;;;;;4.11;100.00;99347.72;5044358;28;20112;-39
2023/01/18 09:12:30;;;;;;;20.25;5.53;;;;;;;4.50;100.00;99352.09;5050743;28;20383;-40
2023/01/18 09:14:55;;;;;;;17.27;5.38;;;;;;;5.07;100.00;99350.72;5053025;28;20021;-40
2023/01/18 09:17:21;;;;;;;19.58;5.22;;;;;;;5.77;100.00;99357.41;5050436;28;20029;-40
2023/01/18 09:19:46;;;;;;;21.58;5.72;;;;;;;5.30;100.00;99355.97;5036905;28;20064;-40
2023/01/18 09:22:12;;;;;;;14.48;5.82;;;;;;;5.24;100.00;99356.72;5042568;28;20092;-42
2023/01/18 09:24:37;;;;;;;19.80;4.90;;;;;;;5.12;100.00;99347.50;5038805;28;20031;-40
2023/01/18 09:27:05;;;;;;;14.00;4.75;;;;;;;5.05;100.00;99356.25;5038360;28;20476;-40
2023/01/18 09:29:31;;;;;;;14.27;5.80;;;;;;;5.07;100.00;99351.53;5037015;28;20443;-40
2023/01/18 09:31:56;;;;;;;19.90;5.05;;;;;;;5.11;100.00;99352.03;5042112;28;20024;-40
2023/01/18 09:34:22;;;;;;;13.02;5.53;;;;;;;5.03;100.00;99350.25;5032070;28;20124;-40
2023/01/18 09:36:51;;;;;;;22.20;5.63;;;;;;;4.47;100.00;99351.59;5047368;28;20028;-40
2023/01/18 09:39:18;;;;;;;16.30;5.22;;;;;;;4.18;100.00;99351.31;5037953;28;20029;-40
2023/01/18 09:41:51;;;;;;;14.65;5.28;;;;;;;3.73;100.00;99365.41;5041877;28;20113;-40
2023/01/18 09:44:33;;;;;;;27.90;5.45;;;;;;;3.83;100.00;99352.72;5039031;28;20025;-38
2023/01/18 09:47:04;;;;;;;22.75;6.22;;;;;;;4.48;100.00;99362.09;5036400;28;20485;-40
2023/01/18 09:49:36;;;;;;;16.02;4.80;;;;;;;4.64;100.00;99360.31;5034763;28;20028;-40
2023/01/18 09:52:05;;;;;;;16.48;4.05;;;;;;;5.04;100.00;99353.75;5040502;28;20026;-39
2023/01/18 09:54:33;;;;;;;;;;;;;;;5.37;100.00;99351.56;5042314;28;20033;-41
2023/01/18 09:57:22;;;;;;;11.98;4.47;;;;;;;5.54;100.00;99351.34;5043314;28;19982;-37
2023/01/18 09:59:54;;;;;;;17.58;5.25;;;;;;;5.76;100.00;99353.06;5050179;28;20511;-40
2023/01/18 10:02:22;;;;;;;14.48;4.85;;;;;;;6.10;100.00;99355.09;5033848;28;20041;-41
2023/01/18 10:05:04;;;;;;;19.77;4.65;;;;;;;6.15;100.00;99359.88;5033141;28;20033;-40
2023/01/18 10:07:33;;;;;;;13.45;4.95;;;;;;;6.38;100.00;99355.19;5049818;28;20063;-40
2023/01/18 10:09:59;;;;;;;18.30;4.10;;;;;;;6.38;100.00;99365.88;5050089;28;20531;-40
2023/01/18 10:12:39;;;;;;;16.55;4.53;;;;;;;5.82;100.00;99368.34;5050799;28;20404;-41
2023/01/18 10:15:16;;;;;;;10.23;4.65;;;;;;;5.53;100.00;99376.38;5043248;28;20047;-39
2023/01/18 10:17:43;;;;;;;12.77;4.78;;;;;;;5.23;100.00;99376.38;5051530;28;20029;-40
2023/01/18 10:20:19;;;;;;;17.20;5.25;;;;;;;5.17;100.00;99383.28;5048376;28;20104;-40
2023/01/18 10:23:10;;;;;;;19.42;4.90;;;;;;;5.50;100.00;99383.75;5043445;28;20037;-40
2023/01/18 10:25:42;;;;;;;16.95;5.25;;;;;;;5.33;100.00;99382.28;5031169;28;20045;-40
2023/01/18 10:28:38;;;;;;;17.38;5.22;;;;;;;4.96;100.00;99381.31;5036524;28;20049;-40
2023/01/18 10:31:18;;;;;;;20.27;6.13;;;;;;;4.95;100.00;99379.69;5042656;28;20423;-41
2023/01/18 10:33:45;;;;;;;19.33;5.25;;;;;;;4.80;100.00;99392.97;5032041;28;20493;-41
2023/01/18 10:36:15;;;;;;;18.50;6.30;;;;;;;4.82;100.00;99392.81;5045868;28;20090;-41
2023/01/18 10:38:41;;;;;;;21.88;5.93;;;;;;;4.76;100.00;99394.31;5046349;28;20389;-41
2023/01/18 10:41:16;;;;;;;15.73;5.85;;;;;;;4.90;100.00;99392.72;5047945;28;20163;-41
2023/01/18 10:43:43;;;;;;;15.07;6.70;;;;;;;4.96;100.00;99392.00;5036668;28;20029;-41
2023/01/18 10:46:18;;;;;;;26.55;5.68;;;;;;;4.91;100.00;99396.22;5030568;28;20310;-41
2023/01/18 10:48:47;;;;;;;17.40;5.95;;;;;;;4.82;100.00;99396.28;5040795;28;20029;-41
2023/01/18 10:51:30;;;;;;;21.42;6.43;;;;;;;4.91;100.00;99389.03;5045159;28;20028;-40
2023/01/18 10:53:56;;;;;;;24.65;5.70;;;;;;;4.83;100.00;99394.44;5048700;28;20542;-41
2023/01/18 10:56:25;;;;;;;17.17;6.13;;;;;;;4.96;100.00;99391.16;5041526;28;20025;-41
2023/01/18 10:58:50;;;;;;;24.60;5.80;;;;;;;5.14;100.00;99396.16;5043434;28;20029;-39
2023/01/18 11:01:21;;;;;;;22.83;5.75;;;;;;;5.35;100.00;99393.59;5050599;28;20434;-39
2023/01/18 11:04:04;;;;;;;20.15;6.50;;;;;;;5.65;100.00;99396.25;5051020;28;20058;-39
2023/01/18 11:06:50;;;;;;;23.35;6.03;;;;;;;5.87;100.00;99389.97;5048880;28;20024;-39
2023/01/18 11:09:35;;;;;;;27.23;6.43;;;;;;;5.91;100.00;99391.25;5032943;28;20128;-40
2023/01/18 11:12:40;;;;;;;16.95;5.70;;;;;;;5.79;100.00;99399.91;5042332;28;20032;-39
2023/01/18 11:15:14;;;;;;;21.77;5.43;;;;;;;5.86;100.00;99403.50;5050360;28;20029;-40
2023/01/18 11:17:42;;;;;;;25.92;5.68;;;;;;;5.77;100.00;99402.78;5040075;28;20040;-41
2023/01/18 11:20:18;;;;;;;25.35;5.95;;;;;;;5.70;100.00;99405.34;5030223;28;20025;-40
2023/01/18 11:22:58;;;;;;;28.13;7.10;;;;;;;5.57;100.00;99409.69;5047813;28;20514;-40
2023/01/18 11:25:35;;;;;;;29.10;6.72;;;;;;;5.25;100.00;99406.38;5045754;28;20099;-40
2023/01/18 11:28:01;;;;;;;23.55;6.65;;;;;;;5.31;100.00;99416.31;5037822;28;20021;-40
2023/01/18 11:30:26;;;;;;;20.80;6.35;;;;;;;5.26;100.00;99418.69;5048424;28;20029;-40
2023/01/18 11:32:53;;;;;;;31.35;6.15;;;;;;;5.03;100.00;99403.59;5049830;28;20454;-37
2023/01/18 11:35:38;;;;;;;20.35;5.80;;;;;;;5.12;100.00;99411.50;5046529;28;20080;-40
2023/01/18 11:38:07;;;;;;;21.13;7.85;;;;;;;5.07;100.00;99412.88;5041263;28;20034;-40
2023/01/18 11:40:34;;;;;;;16.30;6.40;;;;;;;5.11;100.00;99402.69;5033780;28;20056;-40
2023/01/18 11:43:03;;;;;;;29.83;5.15;;;;;;;5.02;100.00;99401.91;5050052;28;20025;-40
2023/01/18 11:45:49;;;;;;;22.95;5.93;;;;;;;4.87;100.00;99406.41;5048315;28;20031;-39
2023/01/18 11:48:37;;;;;;;25.15;5.72;;;;;;;4.84;100.00;99414.75;5033821;28;20025;-41
2023/01/18 11:51:15;;;;;;;24.17;4.85;;;;;;;4.82;100.00;99411.47;5029568;28;20039;-40
2023/01/18 11:53:44;;;;;;;;;;;;;;;4.69;100.00;99412.06;5039808;28;20155;-40
2023/01/18 11:56:31;;;;;;;19.40;3.30;;;;;;;4.68;100.00;99413.03;5042228;28;20406;-40
2023/01/18 11:58:57;;;;;;;16.90;2.60;;;;;;;4.79;100.00;99417.13;5044284;28;20056;-40
2023/01/18 12:01:49;;;;;;;19.25;2.60;;;;;;;4.81;100.00;99409.78;5040535;28;20388;-40
2023/01/18 12:04:40;;;;;;;11.60;1.95;;;;;;;4.89;100.00;99411.56;5032532;28;20044;-40
2023/01/18 12:07:48;;;;;;;43.22;6.57;;;;;;;4.87;100.00;99409.09;5031670;28;20417;-40
2023/01/18 12:10:24;;;;;;;20.48;3.17;;;;;;;4.85;100.00;99427.09;5035034;28;20115;-38
2023/01/18 12:13:01;;;;;;;18.13;2.30;;;;;;;4.73;100.00;99417.84;5038500;28;20066;-39